^

Wetter Neuhaus/WN - aktuelle & historische Daten
 
Tägliche Zusammenfassung für Dezember 14, 2017 Einheit:  Metrisch    English   Beide
« minus 1 Tag
plus 1 Tag »
Tägliche Wöchentliche Monatliche Jährliche
  Aktuell: Höchstwert: Tiefstwert: Durchschnitt:
Temperatur: 1.9 °C 2.8 °C 0.2 °C 1 °C
Taupunkt: 0.1 °C 2.6 °C 0.0 °C 0.8 °C
Luftfeuchte: 88 % 99 % 87 % 98 %
Windgeschwindigkeit: 6.4 km/h 12.2 km/h 0.0 km/h 1 km/h
Windböe: 11.9 km/h 19.8 km/h - -
Wind:SSW - - WSW
Druck: 998.9 hPa 999.2 hPa 995.1 hPa -
Niederschlag: 8.1 mm      
Historical Graphs
 
 














tabellarische Daten für Dezember 14, 2017
Zeit Temperatur Taupunkt Luftdruck Wind Windgeschwindigkeit Windböe Luftfeuchte Regen (pro h) Solar Bedingungen
00:04 0.2 °C 0.1 °C 999.2 hPa Ruhig     99 % 0.0 mm 0.00 W/m2
00:09 0.2 °C 0.1 °C 998.9 hPa Ruhig     99 % 0.0 mm 0.00 W/m2
00:14 0.2 °C 0.1 °C 998.9 hPa Ruhig     99 % 0.0 mm 0.00 W/m2
00:20 0.2 °C 0.1 °C 998.5 hPa Ruhig     99 % 0.0 mm 0.00 W/m2
00:25 0.3 °C 0.2 °C 998.5 hPa Ruhig     99 % 0.0 mm 0.00 W/m2
00:30 0.3 °C 0.2 °C 998.5 hPa Ruhig     99 % 0.0 mm 0.00 W/m2
00:35 0.3 °C 0.2 °C 998.2 hPa Ruhig     99 % 0.0 mm 0.00 W/m2
00:40 0.3 °C 0.2 °C 997.9 hPa Ruhig     99 % 0.0 mm 0.00 W/m2
00:45 0.3 °C 0.2 °C 997.9 hPa Ruhig     99 % 0.0 mm 0.00 W/m2
00:50 0.3 °C 0.2 °C 997.5 hPa Ruhig     99 % 0.0 mm 0.00 W/m2
00:55 0.3 °C 0.2 °C 997.5 hPa Ruhig     99 % 0.0 mm 0.00 W/m2
01:05 0.3 °C 0.2 °C 997.2 hPa Ruhig     99 % 0.0 mm 0.00 W/m2
01:10 0.3 °C 0.2 °C 996.8 hPa Ruhig     99 % 0.0 mm 0.00 W/m2
01:15 0.3 °C 0.2 °C 997.2 hPa Ruhig     99 % 0.0 mm 0.00 W/m2
01:20 0.3 °C 0.2 °C 996.8 hPa Ruhig     99 % 0.0 mm 0.00 W/m2
01:36 0.3 °C 0.2 °C 996.8 hPa Ruhig     99 % 0.0 mm 0.00 W/m2
01:41 0.3 °C 0.2 °C 996.8 hPa Ruhig     99 % 0.0 mm 0.00 W/m2
01:51 0.2 °C 0.1 °C 996.5 hPa Ruhig     99 % 0.0 mm 0.00 W/m2
01:56 0.2 °C 0.1 °C 996.5 hPa Ruhig     99 % 0.0 mm 0.00 W/m2
02:01 0.2 °C 0.1 °C 996.8 hPa Ruhig     99 % 0.0 mm 0.00 W/m2
02:06 0.2 °C 0.1 °C 996.8 hPa Ruhig     99 % 0.0 mm 0.00 W/m2
02:11 0.3 °C 0.2 °C 996.8 hPa Ruhig     99 % 0.0 mm 0.00 W/m2
02:16 0.3 °C 0.2 °C 996.8 hPa Ruhig     99 % 0.0 mm 0.00 W/m2
02:21 0.3 °C 0.2 °C 996.8 hPa Ruhig     99 % 0.0 mm 0.00 W/m2
02:26 0.3 °C 0.2 °C 996.8 hPa Ruhig     99 % 0.0 mm 0.00 W/m2
02:31 0.3 °C 0.2 °C 996.8 hPa Ruhig     99 % 0.0 mm 0.00 W/m2
02:46 0.3 °C 0.2 °C 996.8 hPa Ruhig     99 % 0.0 mm 0.00 W/m2
02:52 0.3 °C 0.2 °C 996.8 hPa Ruhig     99 % 0.0 mm 0.00 W/m2
03:02 0.3 °C 0.2 °C 996.8 hPa Ruhig     99 % 0.0 mm 0.00 W/m2
03:07 0.3 °C 0.2 °C 996.8 hPa Ruhig     99 % 0.0 mm 0.00 W/m2
03:12 0.3 °C 0.2 °C 996.8 hPa Ruhig     99 % 0.0 mm 0.00 W/m2
03:17 0.3 °C 0.2 °C 996.8 hPa Ruhig     99 % 0.0 mm 0.00 W/m2
03:22 0.3 °C 0.2 °C 996.8 hPa Ruhig     99 % 0.0 mm 0.00 W/m2
03:27 0.3 °C 0.2 °C 996.8 hPa Ruhig     99 % 0.0 mm 0.00 W/m2
03:32 0.3 °C 0.2 °C 996.8 hPa Ruhig     99 % 0.0 mm 0.00 W/m2
03:37 0.3 °C 0.2 °C 996.5 hPa Ruhig     99 % 0.0 mm 0.00 W/m2
03:42 0.3 °C 0.2 °C 996.5 hPa Ruhig     99 % 0.0 mm 0.00 W/m2
03:47 0.4 °C 0.3 °C 996.5 hPa Ruhig     99 % 0.0 mm 0.00 W/m2
03:52 0.4 °C 0.3 °C 996.2 hPa Ruhig     99 % 0.0 mm 0.00 W/m2
03:57 0.4 °C 0.3 °C 996.5 hPa Ruhig     99 % 0.0 mm 0.00 W/m2
04:02 0.5 °C 0.4 °C 996.5 hPa Ruhig     99 % 0.0 mm 0.00 W/m2
04:08 0.5 °C 0.4 °C 996.5 hPa Ruhig     99 % 0.0 mm 0.00 W/m2
04:20 0.6 °C 0.5 °C 996.5 hPa Ruhig     99 % 0.0 mm 0.00 W/m2
04:23 0.6 °C 0.5 °C 996.5 hPa Ruhig     99 % 0.0 mm 0.00 W/m2
04:30 0.6 °C 0.5 °C 996.5 hPa Ruhig     99 % 0.0 mm 0.00 W/m2
04:35 0.7 °C 0.6 °C 996.5 hPa Ruhig     99 % 0.0 mm 0.00 W/m2
04:44 0.8 °C 0.7 °C 996.5 hPa Ruhig     99 % 0.0 mm 0.00 W/m2
04:49 0.9 °C 0.8 °C 996.5 hPa Ruhig     99 % 0.0 mm 0.00 W/m2
04:54 0.9 °C 0.8 °C 996.5 hPa Ruhig     99 % 0.0 mm 0.00 W/m2
05:00 1.0 °C 0.9 °C 996.5 hPa Ruhig     99 % 0.0 mm 0.00 W/m2
05:05 1.0 °C 0.9 °C 996.5 hPa Ruhig     99 % 0.0 mm 0.00 W/m2
05:10 1.1 °C 1.0 °C 996.5 hPa Ruhig     99 % 0.0 mm 0.00 W/m2
05:15 1.1 °C 1.0 °C 996.5 hPa Ruhig     99 % 1.8 mm 0.00 W/m2
05:20 1.1 °C 1.0 °C 996.2 hPa Ruhig     99 % 1.8 mm 0.00 W/m2
05:25 1.2 °C 1.1 °C 996.2 hPa Ruhig     99 % 0.0 mm 0.00 W/m2
05:31 1.2 °C 1.1 °C 996.2 hPa Ruhig     99 % 0.0 mm 0.00 W/m2
05:36 1.2 °C 1.1 °C 996.5 hPa Ruhig     99 % 0.0 mm 0.00 W/m2
05:41 1.2 °C 1.1 °C 996.2 hPa Ruhig     99 % 0.0 mm 0.00 W/m2
05:46 1.2 °C 1.1 °C 996.2 hPa Ruhig     99 % 0.0 mm 0.00 W/m2
05:51 1.2 °C 1.1 °C 996.2 hPa Ruhig     99 % 0.0 mm 0.00 W/m2
05:56 1.2 °C 1.1 °C 996.2 hPa Ruhig     99 % 0.0 mm 0.00 W/m2
06:12 1.2 °C 1.1 °C 996.2 hPa Ruhig     99 % 0.0 mm 0.00 W/m2
06:17 1.3 °C 1.2 °C 995.8 hPa Ruhig     99 % 1.8 mm 0.00 W/m2
06:22 1.3 °C 1.2 °C 995.8 hPa Ruhig     99 % 1.8 mm 0.00 W/m2
06:27 1.3 °C 1.2 °C 995.8 hPa Ruhig     99 % 0.0 mm 0.00 W/m2
06:30 1.3 °C 1.2 °C 995.8 hPa Ruhig     99 % 0.0 mm 0.00 W/m2
06:35 1.4 °C 1.3 °C 995.5 hPa Ruhig     99 % 1.8 mm 0.00 W/m2
06:37 1.4 °C 1.3 °C 995.5 hPa Ruhig     99 % 1.8 mm 0.00 W/m2
06:42 1.4 °C 1.3 °C 995.5 hPa Ruhig     99 % 0.0 mm 0.00 W/m2
06:47 1.5 °C 1.4 °C 995.1 hPa Ruhig     99 % 1.8 mm 0.00 W/m2
06:52 1.5 °C 1.4 °C 995.1 hPa Ruhig     99 % 1.8 mm 0.00 W/m2
06:57 1.6 °C 1.5 °C 995.1 hPa Ruhig     99 % 1.8 mm 0.00 W/m2
07:02 1.6 °C 1.5 °C 995.1 hPa Ruhig     99 % 7.1 mm 0.00 W/m2
07:08 1.7 °C 1.6 °C 995.1 hPa Ruhig     99 % 10.9 mm 0.00 W/m2
07:28 2.1 °C 2.0 °C 996.2 hPa Ruhig     99 % 3.6 mm 0.00 W/m2
07:43 2.5 °C 2.4 °C 995.8 hPa WSW 1.8 km/h 7.9 km/h 99 % 3.6 mm 0.00 W/m2
07:48 2.6 °C 2.5 °C 996.2 hPa Ruhig     99 % 3.6 mm 0.00 W/m2
07:53 2.7 °C 2.6 °C 996.2 hPa SW 0.3 km/h 4.0 km/h 99 % 1.8 mm 0.00 W/m2
07:58 2.8 °C 2.5 °C 996.5 hPa West 4.3 km/h 7.9 km/h 98 % 1.8 mm 0.00 W/m2
08:04 2.8 °C 2.5 °C 996.5 hPa West 12.2 km/h 19.8 km/h 98 % 1.8 mm 0.22 W/m2
08:09 2.8 °C 2.5 °C 996.8 hPa WSW 0.3 km/h 4.0 km/h 98 % 3.6 mm 0.44 W/m2
08:14 2.8 °C 2.4 °C 996.8 hPa WNW 0.6 km/h 4.0 km/h 97 % 3.6 mm 2.35 W/m2
08:19 2.7 °C 2.4 °C 997.2 hPa NW 1.8 km/h 4.0 km/h 98 % 3.6 mm 4.21 W/m2
08:24 2.6 °C 2.0 °C 997.2 hPa WNW 5.5 km/h 11.9 km/h 96 % 1.8 mm 5.19 W/m2
08:34 2.4 °C 0.8 °C 997.5 hPa SW 6.4 km/h 11.9 km/h 89 % 1.8 mm 9.06 W/m2
08:35 2.4 °C 0.9 °C 997.5 hPa SSE 10.5 km/h 19.8 km/h 90 % 1.8 mm 9.34 W/m2
08:40 2.3 °C 1.1 °C 997.9 hPa WSW 4.0 km/h 4.0 km/h 92 % 0.0 mm 11.34 W/m2
08:45 2.2 °C 1.0 °C 998.2 hPa NNW 9.0 km/h 15.8 km/h 92 % 0.0 mm 13.90 W/m2
08:50 2.1 °C 0.8 °C 998.2 hPa West 6.4 km/h 11.9 km/h 91 % 0.0 mm 15.82 W/m2
08:56 2.0 °C 0.4 °C 998.5 hPa SSW 7.9 km/h 11.9 km/h 89 % 1.8 mm 18.44 W/m2
09:01 1.9 °C 0.1 °C 998.9 hPa WSW 7.2 km/h 11.9 km/h 88 % 1.8 mm 22.81 W/m2
09:02 1.9 °C 0.1 °C 998.5 hPa WSW 6.4 km/h 11.9 km/h 88 % 0.0 mm 27.75 W/m2
09:08 1.9 °C 0.0 °C 998.5 hPa SSW 3.2 km/h 7.9 km/h 87 % 0.0 mm 24.66 W/m2
09:13 1.9 °C 0.1 °C 998.9 hPa SSW 6.4 km/h 11.9 km/h 88 % 0.0 mm 32.05 W/m2
Neuhaus/WN - Oberpfalz
Compliments of Weather Underground - 512 kb